Relevés horaires Chievres (Belgique)


Relevés horaires à Chievres - Vendredi 18 Mars 2022
Heure UTC1 Température [°C] Vent [km/h] Hum. [%] Pres.4 [hPa] Visi. [Km] Nébu. [octa] Préc.5 [mm] Cond.
2m. Res. Ros. Dir.2 Vit. Moy. Raf.3
23:00 8.6 6.5 2.7 ENE 13.0 -- 16.7 66 1041.4(0.0/3h) 20 -- -- --
22:00 8.9 7.1 2.7 ENE 11.1 -- 14.8 65 1041.5(0.3/3h) 20 -- -- --
21:00 9.1 7.4 2.2 ENE 11.1 -- 14.8 62 1041.5(0.5/3h) 20 -- -- --
20:00 9.5 8.2 1.3 NE 9.3 -- 14.8 57 1041.4(0.7/3h) 20 -- -- --
19:00 10.4 8.9 0.2 NE 11.1 -- 14.8 49 1041.2(0.7/3h) 20 -- -- --
18:00 11.4 10.4 -0.3 ENE 9.3 -- 20.4 44 1041(0.0/3h) 20 -- -- --
17:00 13.1 12.2 0.2 NE 11.1 -- 20.4 41 1040.5(-0.8/3h) 20 -- -- --
16:00 13.8 12.6 -0.3 NE 14.8 -- 20.4 38 1040.4(-1.4/3h) 20 -- -- --
15:00 13.9 12.9 -- NE 13.0 -- 20.4 -- 1040.7(-1.4/3h) 20 -- -- --
14:00 13.9 13.1 1.1 NE 11.1 -- 18.5 42 1041.2(-1.2/3h) 20 -- -- --
13:00 13.0 12.1 0.6 NE 11.1 -- 18.5 43 1041.9(-0.6/3h) 20 -- -- --
12:00 12.3 11.2 0.3 ENE 11.1 -- 18.5 44 1042.2(0.1/3h) 19 -- -- --
10:00 9.8 8.2 1.9 NE 11.1 -- 13.0 58 1042.7(1.5/3h) 19 -- -- --
09:00 8.0 6.8 2.4 NE 7.4 -- 11.1 68 1042.2(1.4/3h) 20 -- -- --
08:00 4.3 4.3 1.7 NNO 1.9 -- 1.9 83 1041.7(0.9/3h) 13 -- -- --
07:00 0.7 0.7 -- NNO 1.9 -- 3.7 -- 1041.5(1.0/3h) 8 -- -- Du brouillard ou du brouillard glacé (plus correctement designé sous le nom de brume) est observé et la visibilité n'est ni inférieure à 5/8 de mille ni supérieure à 6 milles
06:00 -0.5 -0.5 -1.3 NNO 1.9 -- 3.7 94 1041(1.4/3h) 10 -- -- Du brouillard ou du brouillard glacé (plus correctement designé sous le nom de brume) est observé et la visibilité n'est ni inférieure à 5/8 de mille ni supérieure à 6 milles
05:00 -0.1 -0.1 -0.9 NNO 1.9 -- 3.7 94 1040.9(1.4/3h) 12 -- -- --
04:00 0.6 0.6 -0.3 NNO 1.9 -- 3.7 94 1040.4(1.1/3h) 12 -- -- --
03:00 0.3 0.3 -0.6 NNO 1.9 -- 3.7 94 1039.5(0.7/3h) 11 -- -- --
02:00 1.1 1.1 -- NNO 1.9 -- 3.7 -- 1039.4(0.5/3h) 11 -- -- --
01:00 1.1 1.1 0.1 NNO 1.9 -- 3.7 93 1039.2(0.7/3h) 11 -- -- --
00:00 2.2 2.2 0.7 NNO 1.9 -- 1.9 90 1038.7(0.7/3h) 14 -- -- --

1 Coordinated Universal Time. Actuellement il est 20:00 locale et 19:00 UTC.

2 Le vent souffle depuis la direction indiquée vers la direction oposée.

3 Les rafales max. sont disponible 40 min après l'heure du relevé.

4 Pour les stations d'altitude (plus de 600m) le géopotentiel du niveau le plus proche de la pression obligatoire est indiqué.

5 Les stations disposant d'un diffuseur peuvent indiquer "trace". Cela signifie que des précipitations ont touchés le sol mais que la quantité est inférieure à 0.1 mm.

Récapitulatif de la journée
Température [°C] Vent [km/h] Ensoleillement4 [h] Precipitations totale5 [mm] Pression [Hpa]
Min1 Max.2 Moy.3 Max. Min Max.
-0.8 14.2 0 20.4 0 h 0 min 0 1038.7 1042.7

1 Température minimale relevée entre 18:00 UTC la veille et 18:00 UTC le jour donné.

2 Température maximale relevée entre 06:00 UTC le jour donné et 06:00 UTC le lendemain.

3 Vent moyen de la journée basé sur les relevés horaires.

4 Ensoleillement en heures relevé entre 06:00 UTC la veille et 06:00 UTC le jour donné.

5 Précipitations totales tombées entre 06:00 UTC la jour donné et 06:00 UTC le lendemain.

Graphiques horaires